Prior Lake, MN (55372)

6:28 AM CDT on August 30, 2016 (GMT -0500)
Carriage Hills - KB9ZI/Skywarn | | Change Station

Elev 960 ft 44.74 °N, 93.44 °W | Updated 0 second ago

Clear
Clear
65.2 °F
Feels Like 65.2 °F
N
2.3
Wind Variable Wind from WNW
Gusts 2.3 mph

Today
High -- | Low -- °F
--% Chance of Precip.
Yesterday
High -- | Low -- °F
Precip. -- in
Pressure 30.13 in
Visibility 10.0 miles
Clouds Clear
Dew Point 63 °F
Humidity 92%
Rainfall 0.27 in
Snow Depth Not available.
6:34 AM 7:52 PM
Waning Crescent, 4% visible
METAR KFCM 301053Z 31004KT 10SM CLR 20/18 A3014 RMK AO2 SLP201 T02000183
Pressure 30.13 in
Visibility 10.0 miles
Clouds Clear
Dew Point 63 °F
Humidity 92%
Rainfall 0.27 in
Snow Depth Not available.
6:34 AM 7:52 PM
Waning Crescent, 4% visible
METAR KFCM 301053Z 31004KT 10SM CLR 20/18 A3014 RMK AO2 SLP201 T02000183

10-Day Weather Forecast

Almanac

Astronomy

Aug. 30, 2016 Rise Set
Actual Time
Civil Twilight
Nautical Twilight
Astronomical Twilight
Moon
Length of Visible Light
Length of Day
Tomorrow will be .
, % of the Moon is Illuminated

Today's Extremes

State Highs State Lows

Community

WunderPhotos

Upload Photos

1,935,804 photos uploaded!

WunderBlog® & News

Nearby

Air Quality

  Air Quality AQ Index Pollutant
Not available.

Snow Depth

Station Depth Elevation

Earthquake Activity

City Distance Mag. Time & Date
Minimum magnitude displayed is 2.5.

Coastal Water Temperatures

Place Temperature

Stations

Nearby Weather Stations

Station Location Temp. Windchill Dew Point Humidity Wind Precip. Elev Updated Type
                   

Watches & Warnings

There are currently no watches in effect.